sensor_id;sensor_type;location;lat;lon;timestamp;pressure;altitude;pressure_sealevel;temperature;humidity
58018;BME280;43810;50.860;19.226;2023-06-22T00:00:52;98725.09;;;20.40;97.04
58018;BME280;43810;50.860;19.226;2023-06-22T00:03:30;98732.47;;;20.32;96.67
58018;BME280;43810;50.860;19.226;2023-06-22T00:05:55;98722.47;;;20.26;96.47
58018;BME280;43810;50.860;19.226;2023-06-22T00:08:22;98740.19;;;20.27;96.69
58018;BME280;43810;50.860;19.226;2023-06-22T00:10:48;98737.84;;;20.32;95.94
58018;BME280;43810;50.860;19.226;2023-06-22T00:13:14;98743.22;;;20.43;94.84
58018;BME280;43810;50.860;19.226;2023-06-22T00:15:41;98745.56;;;20.37;95.05
58018;BME280;43810;50.860;19.226;2023-06-22T00:18:08;98737.88;;;20.25;96.13
58018;BME280;43810;50.860;19.226;2023-06-22T00:20:34;98740.19;;;20.27;96.18
58018;BME280;43810;50.860;19.226;2023-06-22T00:23:03;98738.66;;;20.26;95.59
58018;BME280;43810;50.860;19.226;2023-06-22T00:25:38;98739.41;;;20.23;95.07
58018;BME280;43810;50.860;19.226;2023-06-22T00:28:07;98739.41;;;20.30;95.19
58018;BME280;43810;50.860;19.226;2023-06-22T00:30:34;98736.69;;;20.33;94.74
58018;BME280;43810;50.860;19.226;2023-06-22T00:33:00;98733.63;;;20.31;95.13
58018;BME280;43810;50.860;19.226;2023-06-22T00:35:26;98740.16;;;20.34;94.53
58018;BME280;43810;50.860;19.226;2023-06-22T00:37:56;98749.41;;;20.40;94.18
58018;BME280;43810;50.860;19.226;2023-06-22T00:40:33;98748.63;;;20.46;94.08
58018;BME280;43810;50.860;19.226;2023-06-22T00:43:00;98754.41;;;20.52;94.03
58018;BME280;43810;50.860;19.226;2023-06-22T00:45:26;98759.44;;;20.57;93.87
58018;BME280;43810;50.860;19.226;2023-06-22T00:47:53;98752.47;;;20.52;93.86
58018;BME280;43810;50.860;19.226;2023-06-22T00:50:22;98751.72;;;20.59;93.84
58018;BME280;43810;50.860;19.226;2023-06-22T00:52:55;98742.41;;;20.64;93.62
58018;BME280;43810;50.860;19.226;2023-06-22T00:55:24;98748.63;;;20.61;94.06
58018;BME280;43810;50.860;19.226;2023-06-22T00:57:52;98758.22;;;20.69;93.79
58018;BME280;43810;50.860;19.226;2023-06-22T01:00:25;98744.75;;;20.62;93.77
58018;BME280;43810;50.860;19.226;2023-06-22T01:02:52;98744.00;;;20.47;94.56
58018;BME280;43810;50.860;19.226;2023-06-22T01:05:22;98728.63;;;20.26;94.61
58018;BME280;43810;50.860;19.226;2023-06-22T01:08:04;98731.75;;;20.03;94.47
58018;BME280;43810;50.860;19.226;2023-06-22T01:10:44;98720.56;;;19.87;94.51
58018;BME280;43810;50.860;19.226;2023-06-22T01:14:00;98719.41;;;19.81;95.22
58018;BME280;43810;50.860;19.226;2023-06-22T01:16:29;98727.13;;;19.86;95.29
58018;BME280;43810;50.860;19.226;2023-06-22T01:18:57;98731.38;;;19.91;94.25
58018;BME280;43810;50.860;19.226;2023-06-22T01:21:28;98743.66;;;20.06;93.56
58018;BME280;43810;50.860;19.226;2023-06-22T01:29:17;98739.03;;;20.10;93.93
58018;BME280;43810;50.860;19.226;2023-06-22T01:31:44;98746.75;;;20.08;93.72
58018;BME280;43810;50.860;19.226;2023-06-22T01:34:11;98751.00;;;20.09;93.88
58018;BME280;43810;50.860;19.226;2023-06-22T01:36:38;98751.00;;;19.95;94.02
58018;BME280;43810;50.860;19.226;2023-06-22T01:39:05;98754.06;;;19.72;94.40
58018;BME280;43810;50.860;19.226;2023-06-22T01:41:34;98761.00;;;19.69;94.94
58018;BME280;43810;50.860;19.226;2023-06-22T01:44:04;98763.31;;;19.64;94.46
58018;BME280;43810;50.860;19.226;2023-06-22T01:46:30;98762.53;;;19.70;93.89
58018;BME280;43810;50.860;19.226;2023-06-22T01:48:57;98768.31;;;19.62;94.26
58018;BME280;43810;50.860;19.226;2023-06-22T01:51:23;98768.25;;;19.48;93.67
58018;BME280;43810;50.860;19.226;2023-06-22T01:53:49;98774.00;;;19.39;94.05
58018;BME280;43810;50.860;19.226;2023-06-22T01:56:18;98775.91;;;19.31;93.87
58018;BME280;43810;50.860;19.226;2023-06-22T02:01:27;98770.06;;;19.08;93.76
58018;BME280;43810;50.860;19.226;2023-06-22T02:04:10;98783.16;;;19.09;93.75
58018;BME280;43810;50.860;19.226;2023-06-22T02:06:39;98779.63;;;18.95;93.59
58018;BME280;43810;50.860;19.226;2023-06-22T02:09:11;98784.91;;;18.77;93.83
58018;BME280;43810;50.860;19.226;2023-06-22T02:11:40;98787.13;;;18.61;94.15
58018;BME280;43810;50.860;19.226;2023-06-22T02:14:07;98791.34;;;18.58;94.74
58018;BME280;43810;50.860;19.226;2023-06-22T02:16:33;98793.63;;;18.56;95.96
58018;BME280;43810;50.860;19.226;2023-06-22T02:19:02;98793.22;;;18.54;96.41
58018;BME280;43810;50.860;19.226;2023-06-22T02:21:32;98781.25;;;18.45;96.11
58018;BME280;43810;50.860;19.226;2023-06-22T02:23:58;98792.78;;;18.45;96.38
58018;BME280;43810;50.860;19.226;2023-06-22T02:26:25;98800.44;;;18.40;95.74
58018;BME280;43810;50.860;19.226;2023-06-22T02:28:52;98791.53;;;18.32;96.00
58018;BME280;43810;50.860;19.226;2023-06-22T02:31:18;98796.25;;;18.46;96.06
58018;BME280;43810;50.860;19.226;2023-06-22T02:33:44;98801.25;;;18.47;96.23
58018;BME280;43810;50.860;19.226;2023-06-22T02:36:10;98799.78;;;18.57;97.27
58018;BME280;43810;50.860;19.226;2023-06-22T02:38:41;98812.91;;;18.65;97.16
58018;BME280;43810;50.860;19.226;2023-06-22T02:41:14;98818.81;;;18.89;96.12
58018;BME280;43810;50.860;19.226;2023-06-22T02:43:45;98811.16;;;18.94;96.32
58018;BME280;43810;50.860;19.226;2023-06-22T02:46:11;98821.63;;;19.14;96.48
58018;BME280;43810;50.860;19.226;2023-06-22T02:48:39;98827.44;;;19.19;96.01
58018;BME280;43810;50.860;19.226;2023-06-22T02:51:05;98821.31;;;19.22;96.27
58018;BME280;43810;50.860;19.226;2023-06-22T02:53:32;98823.25;;;19.32;95.81
58018;BME280;43810;50.860;19.226;2023-06-22T02:55:58;98827.50;;;19.40;95.28
58018;BME280;43810;50.860;19.226;2023-06-22T02:58:27;98835.59;;;19.33;95.49
58018;BME280;43810;50.860;19.226;2023-06-22T03:00:52;98833.25;;;19.32;95.44
58018;BME280;43810;50.860;19.226;2023-06-22T03:03:19;98834.81;;;19.36;95.31
58018;BME280;43810;50.860;19.226;2023-06-22T03:05:45;98836.34;;;19.34;95.28
58018;BME280;43810;50.860;19.226;2023-06-22T03:08:11;98839.41;;;19.29;95.67
58018;BME280;43810;50.860;19.226;2023-06-22T03:10:37;98837.50;;;19.36;95.35
58018;BME280;43810;50.860;19.226;2023-06-22T03:13:04;98843.28;;;19.38;95.02
58018;BME280;43810;50.860;19.226;2023-06-22T03:15:30;98851.38;;;19.38;94.95
58018;BME280;43810;50.860;19.226;2023-06-22T03:17:57;98859.50;;;19.45;94.67
58018;BME280;43810;50.860;19.226;2023-06-22T03:20:22;98853.34;;;19.52;94.15
58018;BME280;43810;50.860;19.226;2023-06-22T03:22:49;98862.16;;;19.42;94.47
58018;BME280;43810;50.860;19.226;2023-06-22T03:25:14;98870.22;;;19.38;94.62
58018;BME280;43810;50.860;19.226;2023-06-22T03:27:41;98871.38;;;19.37;94.70
58018;BME280;43810;50.860;19.226;2023-06-22T03:30:09;98868.72;;;19.44;94.80
58018;BME280;43810;50.860;19.226;2023-06-22T03:32:35;98874.13;;;19.52;94.78
58018;BME280;43810;50.860;19.226;2023-06-22T03:35:01;98878.41;;;19.60;94.56
58018;BME280;43810;50.860;19.226;2023-06-22T03:37:28;98878.03;;;19.61;94.69
58018;BME280;43810;50.860;19.226;2023-06-22T03:39:53;98872.69;;;19.68;94.14
58018;BME280;43810;50.860;19.226;2023-06-22T03:42:20;98874.97;;;19.66;94.62
58018;BME280;43810;50.860;19.226;2023-06-22T03:44:46;98883.84;;;19.70;94.72
58018;BME280;43810;50.860;19.226;2023-06-22T03:47:12;98887.38;;;19.89;94.39
58018;BME280;43810;50.860;19.226;2023-06-22T03:49:38;98880.06;;;20.03;93.51
58018;BME280;43810;50.860;19.226;2023-06-22T03:52:05;98884.72;;;20.21;93.16
58018;BME280;43810;50.860;19.226;2023-06-22T03:54:31;98885.09;;;20.26;92.30
58018;BME280;43810;50.860;19.226;2023-06-22T03:56:57;98888.97;;;20.50;91.75
58018;BME280;43810;50.860;19.226;2023-06-22T03:59:24;98889.75;;;20.72;90.60
58018;BME280;43810;50.860;19.226;2023-06-22T04:01:50;98882.41;;;20.76;90.14
58018;BME280;43810;50.860;19.226;2023-06-22T04:04:19;98890.50;;;20.90;89.35
58018;BME280;43810;50.860;19.226;2023-06-22T04:06:45;98894.28;;;21.14;88.00
58018;BME280;43810;50.860;19.226;2023-06-22T04:09:11;98886.16;;;21.24;87.19
58018;BME280;43810;50.860;19.226;2023-06-22T04:11:37;98899.63;;;21.32;87.08
58018;BME280;43810;50.860;19.226;2023-06-22T04:14:03;98881.84;;;21.48;85.70
58018;BME280;43810;50.860;19.226;2023-06-22T04:16:29;98884.03;;;21.71;84.99
58018;BME280;43810;50.860;19.226;2023-06-22T04:18:55;98892.44;;;21.91;83.35
58018;BME280;43810;50.860;19.226;2023-06-22T04:21:21;98900.22;;;21.82;83.92
58018;BME280;43810;50.860;19.226;2023-06-22T04:23:46;98904.78;;;21.95;84.17
58018;BME280;43810;50.860;19.226;2023-06-22T04:26:13;98898.47;;;22.16;83.18
58018;BME280;43810;50.860;19.226;2023-06-22T04:28:40;98899.56;;;22.29;82.39
58018;BME280;43810;50.860;19.226;2023-06-22T04:31:06;98902.97;;;22.37;81.16
58018;BME280;43810;50.860;19.226;2023-06-22T04:33:32;98905.81;;;22.12;81.49
58018;BME280;43810;50.860;19.226;2023-06-22T04:35:58;98914.00;;;22.02;82.11
58018;BME280;43810;50.860;19.226;2023-06-22T04:38:26;98908.97;;;22.07;82.14
58018;BME280;43810;50.860;19.226;2023-06-22T04:40:52;98904.88;;;22.40;81.07
58018;BME280;43810;50.860;19.226;2023-06-22T04:43:19;98915.56;;;22.58;79.23
58018;BME280;43810;50.860;19.226;2023-06-22T04:45:45;98909.09;;;22.89;76.34
58018;BME280;43810;50.860;19.226;2023-06-22T04:48:11;98911.16;;;22.78;78.65
58018;BME280;43810;50.860;19.226;2023-06-22T04:50:42;98918.31;;;22.95;77.08
58018;BME280;43810;50.860;19.226;2023-06-22T04:53:08;98918.19;;;23.13;75.44
58018;BME280;43810;50.860;19.226;2023-06-22T04:55:35;98913.19;;;23.08;75.99
58018;BME280;43810;50.860;19.226;2023-06-22T04:58:03;98917.81;;;23.11;75.06
58018;BME280;43810;50.860;19.226;2023-06-22T05:00:30;98918.00;;;22.90;74.77
58018;BME280;43810;50.860;19.226;2023-06-22T05:02:57;98929.38;;;22.74;74.97
58018;BME280;43810;50.860;19.226;2023-06-22T05:05:24;98935.28;;;23.07;74.16
58018;BME280;43810;50.860;19.226;2023-06-22T05:07:51;98934.38;;;23.20;72.37
58018;BME280;43810;50.860;19.226;2023-06-22T05:10:25;98930.25;;;23.43;70.29
58018;BME280;43810;50.860;19.226;2023-06-22T05:12:51;98927.34;;;23.26;72.42
58018;BME280;43810;50.860;19.226;2023-06-22T05:15:17;98928.00;;;22.96;70.88
58018;BME280;43810;50.860;19.226;2023-06-22T05:17:45;98926.44;;;22.95;71.22
58018;BME280;43810;50.860;19.226;2023-06-22T05:20:12;98917.66;;;22.84;70.32
58018;BME280;43810;50.860;19.226;2023-06-22T05:22:38;98940.56;;;23.21;71.00
58018;BME280;43810;50.860;19.226;2023-06-22T05:25:09;98937.09;;;23.17;70.42
58018;BME280;43810;50.860;19.226;2023-06-22T05:27:35;98931.38;;;23.45;68.69
58018;BME280;43810;50.860;19.226;2023-06-22T05:30:09;98941.59;;;23.64;68.29
58018;BME280;43810;50.860;19.226;2023-06-22T05:32:35;98935.28;;;23.78;66.38
58018;BME280;43810;50.860;19.226;2023-06-22T05:35:03;98945.81;;;23.69;65.38
58018;BME280;43810;50.860;19.226;2023-06-22T05:37:28;98939.59;;;23.72;65.88
58018;BME280;43810;50.860;19.226;2023-06-22T05:39:54;98952.69;;;23.81;65.51
58018;BME280;43810;50.860;19.226;2023-06-22T05:42:21;98947.16;;;23.88;65.59
58018;BME280;43810;50.860;19.226;2023-06-22T05:44:47;98952.63;;;24.15;64.21
58018;BME280;43810;50.860;19.226;2023-06-22T05:47:13;98952.09;;;24.23;62.60
58018;BME280;43810;50.860;19.226;2023-06-22T05:49:39;98951.72;;;24.48;64.25
58018;BME280;43810;50.860;19.226;2023-06-22T05:52:04;98957.44;;;24.57;61.33
58018;BME280;43810;50.860;19.226;2023-06-22T05:54:30;98950.47;;;24.29;64.80
58018;BME280;43810;50.860;19.226;2023-06-22T05:56:56;98947.09;;;24.72;60.84
58018;BME280;43810;50.860;19.226;2023-06-22T05:59:22;98951.06;;;24.91;61.62
58018;BME280;43810;50.860;19.226;2023-06-22T06:01:48;98947.91;;;24.92;60.32
58018;BME280;43810;50.860;19.226;2023-06-22T06:04:20;98954.25;;;24.62;61.28
58018;BME280;43810;50.860;19.226;2023-06-22T06:06:45;98950.09;;;25.01;58.96
58018;BME280;43810;50.860;19.226;2023-06-22T06:09:14;98960.66;;;25.18;58.71
58018;BME280;43810;50.860;19.226;2023-06-22T06:11:39;98953.25;;;25.23;58.59
58018;BME280;43810;50.860;19.226;2023-06-22T06:14:06;98953.81;;;25.34;58.05
58018;BME280;43810;50.860;19.226;2023-06-22T06:16:32;98957.47;;;25.24;58.06
58018;BME280;43810;50.860;19.226;2023-06-22T06:18:58;98961.22;;;25.10;57.89
58018;BME280;43810;50.860;19.226;2023-06-22T06:21:24;98964.13;;;24.99;57.48
58018;BME280;43810;50.860;19.226;2023-06-22T06:23:49;98971.31;;;25.09;57.96
58018;BME280;43810;50.860;19.226;2023-06-22T06:26:15;98969.22;;;25.17;56.19
58018;BME280;43810;50.860;19.226;2023-06-22T06:28:43;98965.38;;;25.38;55.46
58018;BME280;43810;50.860;19.226;2023-06-22T06:31:09;98967.88;;;25.29;57.79
58018;BME280;43810;50.860;19.226;2023-06-22T06:33:36;98962.59;;;25.41;58.27
58018;BME280;43810;50.860;19.226;2023-06-22T06:36:01;98970.25;;;25.46;55.97
58018;BME280;43810;50.860;19.226;2023-06-22T06:38:32;98963.97;;;25.49;57.29
58018;BME280;43810;50.860;19.226;2023-06-22T06:40:58;98968.94;;;25.74;56.79
58018;BME280;43810;50.860;19.226;2023-06-22T06:43:25;98969.34;;;25.93;56.18
58018;BME280;43810;50.860;19.226;2023-06-22T06:45:50;98973.25;;;25.92;53.91
58018;BME280;43810;50.860;19.226;2023-06-22T06:48:16;98969.91;;;25.84;55.21
58018;BME280;43810;50.860;19.226;2023-06-22T06:50:43;98972.63;;;25.84;54.74
58018;BME280;43810;50.860;19.226;2023-06-22T06:53:10;98976.75;;;25.72;55.42
58018;BME280;43810;50.860;19.226;2023-06-22T06:55:35;98971.59;;;25.58;54.21
58018;BME280;43810;50.860;19.226;2023-06-22T06:58:02;98967.34;;;25.57;54.52
58018;BME280;43810;50.860;19.226;2023-06-22T07:00:29;98968.09;;;25.77;54.63
58018;BME280;43810;50.860;19.226;2023-06-22T07:02:55;98973.81;;;26.03;53.80
58018;BME280;43810;50.860;19.226;2023-06-22T07:05:21;98969.44;;;26.25;56.96
58018;BME280;43810;50.860;19.226;2023-06-22T07:07:47;98970.84;;;26.49;54.10
58018;BME280;43810;50.860;19.226;2023-06-22T07:10:13;98970.31;;;26.38;53.85
58018;BME280;43810;50.860;19.226;2023-06-22T07:12:39;98963.25;;;26.73;52.95
58018;BME280;43810;50.860;19.226;2023-06-22T07:15:06;98960.44;;;26.93;53.36
58018;BME280;43810;50.860;19.226;2023-06-22T07:17:36;98956.00;;;26.99;53.50
58018;BME280;43810;50.860;19.226;2023-06-22T07:20:03;98948.50;;;26.54;55.02
58018;BME280;43810;50.860;19.226;2023-06-22T07:22:34;98957.19;;;26.33;54.42
58018;BME280;43810;50.860;19.226;2023-06-22T07:24:59;98954.34;;;26.73;53.80
58018;BME280;43810;50.860;19.226;2023-06-22T07:27:25;98956.34;;;26.85;52.76
58018;BME280;43810;50.860;19.226;2023-06-22T07:29:51;98957.94;;;26.98;54.42
58018;BME280;43810;50.860;19.226;2023-06-22T07:32:17;98952.47;;;27.15;53.89
58018;BME280;43810;50.860;19.226;2023-06-22T07:34:43;98959.44;;;27.32;53.45
58018;BME280;43810;50.860;19.226;2023-06-22T07:37:09;98963.56;;;27.53;51.59
58018;BME280;43810;50.860;19.226;2023-06-22T07:39:35;98956.75;;;27.45;53.19
58018;BME280;43810;50.860;19.226;2023-06-22T07:42:01;98958.22;;;27.33;53.84
58018;BME280;43810;50.860;19.226;2023-06-22T07:44:27;98963.53;;;27.08;53.28
58018;BME280;43810;50.860;19.226;2023-06-22T07:46:52;98961.78;;;26.85;54.50
58018;BME280;43810;50.860;19.226;2023-06-22T07:49:18;98959.59;;;27.54;53.57
58018;BME280;43810;50.860;19.226;2023-06-22T07:51:44;98969.31;;;27.55;53.29
58018;BME280;43810;50.860;19.226;2023-06-22T07:54:10;98965.22;;;27.63;53.91
58018;BME280;43810;50.860;19.226;2023-06-22T07:56:37;98963.34;;;27.60;52.73
58018;BME280;43810;50.860;19.226;2023-06-22T07:59:02;98973.75;;;27.65;50.81
58018;BME280;43810;50.860;19.226;2023-06-22T08:01:29;98979.00;;;27.72;53.73
58018;BME280;43810;50.860;19.226;2023-06-22T08:03:55;98985.53;;;27.62;53.07
58018;BME280;43810;50.860;19.226;2023-06-22T08:06:21;98979.66;;;27.89;52.05
58018;BME280;43810;50.860;19.226;2023-06-22T08:08:47;98985.31;;;27.69;53.21
58018;BME280;43810;50.860;19.226;2023-06-22T08:11:14;98979.22;;;27.65;49.99
58018;BME280;43810;50.860;19.226;2023-06-22T08:13:40;98974.78;;;27.55;52.55
58018;BME280;43810;50.860;19.226;2023-06-22T08:16:06;98983.38;;;27.82;51.52
58018;BME280;43810;50.860;19.226;2023-06-22T08:18:33;98981.69;;;27.59;51.84
58018;BME280;43810;50.860;19.226;2023-06-22T08:20:59;98985.69;;;27.55;52.76
58018;BME280;43810;50.860;19.226;2023-06-22T08:23:24;98990.97;;;28.03;51.69
58018;BME280;43810;50.860;19.226;2023-06-22T08:25:50;98989.56;;;28.12;53.38
58018;BME280;43810;50.860;19.226;2023-06-22T08:28:16;98990.84;;;27.53;51.37
58018;BME280;43810;50.860;19.226;2023-06-22T08:30:42;99001.78;;;27.94;51.49
58018;BME280;43810;50.860;19.226;2023-06-22T08:33:08;98989.13;;;28.13;50.88
58018;BME280;43810;50.860;19.226;2023-06-22T08:35:34;98987.59;;;28.25;50.83
58018;BME280;43810;50.860;19.226;2023-06-22T08:37:59;99001.56;;;28.01;50.89
58018;BME280;43810;50.860;19.226;2023-06-22T08:40:27;98994.06;;;28.18;51.97
58018;BME280;43810;50.860;19.226;2023-06-22T08:42:55;98995.16;;;28.08;50.92
58018;BME280;43810;50.860;19.226;2023-06-22T08:45:21;99001.94;;;28.54;50.63
58018;BME280;43810;50.860;19.226;2023-06-22T08:47:47;98993.56;;;28.96;51.83
58018;BME280;43810;50.860;19.226;2023-06-22T08:50:14;98996.69;;;28.72;50.42
58018;BME280;43810;50.860;19.226;2023-06-22T08:52:41;98996.63;;;28.98;47.96
58018;BME280;43810;50.860;19.226;2023-06-22T08:55:08;98990.78;;;29.21;48.88
58018;BME280;43810;50.860;19.226;2023-06-22T08:57:34;98999.50;;;29.29;48.97
58018;BME280;43810;50.860;19.226;2023-06-22T09:00:05;99003.56;;;29.59;47.74
58018;BME280;43810;50.860;19.226;2023-06-22T09:02:36;99013.59;;;29.40;46.99
58018;BME280;43810;50.860;19.226;2023-06-22T09:05:03;99011.50;;;28.97;49.35
58018;BME280;43810;50.860;19.226;2023-06-22T09:07:29;99013.81;;;28.98;48.06
58018;BME280;43810;50.860;19.226;2023-06-22T09:09:56;98998.81;;;29.03;47.80
58018;BME280;43810;50.860;19.226;2023-06-22T09:12:22;99002.97;;;28.95;50.72
58018;BME280;43810;50.860;19.226;2023-06-22T09:14:51;98994.81;;;28.69;49.43
58018;BME280;43810;50.860;19.226;2023-06-22T09:17:17;99000.16;;;28.86;50.40
58018;BME280;43810;50.860;19.226;2023-06-22T09:19:43;98993.97;;;29.41;48.42
58018;BME280;43810;50.860;19.226;2023-06-22T09:22:09;99002.81;;;29.80;49.31
58018;BME280;43810;50.860;19.226;2023-06-22T09:24:35;98998.91;;;29.90;47.51
58018;BME280;43810;50.860;19.226;2023-06-22T09:27:01;98989.88;;;29.59;46.21
58018;BME280;43810;50.860;19.226;2023-06-22T09:29:27;98999.47;;;29.41;48.62
58018;BME280;43810;50.860;19.226;2023-06-22T09:31:53;98986.81;;;29.78;49.35
58018;BME280;43810;50.860;19.226;2023-06-22T09:34:21;98984.34;;;30.02;48.41
58018;BME280;43810;50.860;19.226;2023-06-22T09:36:47;98991.31;;;29.94;47.70
58018;BME280;43810;50.860;19.226;2023-06-22T09:39:13;98990.69;;;29.90;46.26
58018;BME280;43810;50.860;19.226;2023-06-22T09:41:39;98982.81;;;29.49;46.54
58018;BME280;43810;50.860;19.226;2023-06-22T09:44:05;98969.66;;;29.65;46.38
58018;BME280;43810;50.860;19.226;2023-06-22T09:46:30;98955.13;;;29.99;45.13
58018;BME280;43810;50.860;19.226;2023-06-22T09:48:56;98957.69;;;29.72;46.38
58018;BME280;43810;50.860;19.226;2023-06-22T09:51:23;98953.97;;;29.35;48.99
58018;BME280;43810;50.860;19.226;2023-06-22T09:53:50;98955.22;;;29.43;47.87
58018;BME280;43810;50.860;19.226;2023-06-22T09:56:16;98948.06;;;29.67;45.91
58018;BME280;43810;50.860;19.226;2023-06-22T09:58:43;98953.00;;;29.72;45.35
58018;BME280;43810;50.860;19.226;2023-06-22T10:01:09;98942.88;;;29.82;45.39
58018;BME280;43810;50.860;19.226;2023-06-22T10:03:36;98940.63;;;30.30;44.92
58018;BME280;43810;50.860;19.226;2023-06-22T10:06:02;98950.66;;;30.24;46.03
58018;BME280;43810;50.860;19.226;2023-06-22T10:08:28;98949.41;;;30.15;45.68
58018;BME280;43810;50.860;19.226;2023-06-22T10:10:54;98952.38;;;30.30;46.21
58018;BME280;43810;50.860;19.226;2023-06-22T10:13:20;98965.00;;;30.37;45.74
58018;BME280;43810;50.860;19.226;2023-06-22T10:15:46;98958.34;;;30.38;45.72
58018;BME280;43810;50.860;19.226;2023-06-22T10:18:20;98945.28;;;30.42;45.18
58018;BME280;43810;50.860;19.226;2023-06-22T10:20:50;98949.28;;;30.77;42.84
58018;BME280;43810;50.860;19.226;2023-06-22T10:23:20;98949.13;;;30.81;43.70
58018;BME280;43810;50.860;19.226;2023-06-22T10:25:45;98944.16;;;30.98;42.41
58018;BME280;43810;50.860;19.226;2023-06-22T10:28:12;98942.00;;;31.38;41.61
58018;BME280;43810;50.860;19.226;2023-06-22T10:30:39;98933.72;;;31.75;42.39
58018;BME280;43810;50.860;19.226;2023-06-22T10:33:07;98930.13;;;32.02;40.94
58018;BME280;43810;50.860;19.226;2023-06-22T10:35:34;98943.53;;;31.30;43.94
58018;BME280;43810;50.860;19.226;2023-06-22T10:38:00;98944.41;;;31.73;43.08
58018;BME280;43810;50.860;19.226;2023-06-22T10:40:26;98933.88;;;32.22;41.56
58018;BME280;43810;50.860;19.226;2023-06-22T10:42:52;98937.75;;;31.55;41.72
58018;BME280;43810;50.860;19.226;2023-06-22T10:45:17;98932.06;;;30.77;45.56
58018;BME280;43810;50.860;19.226;2023-06-22T10:47:43;98938.34;;;30.86;46.07
58018;BME280;43810;50.860;19.226;2023-06-22T10:50:09;98934.22;;;30.91;43.14
58018;BME280;43810;50.860;19.226;2023-06-22T10:52:35;98937.56;;;31.41;41.55
58018;BME280;43810;50.860;19.226;2023-06-22T10:55:01;98931.00;;;31.66;42.35
58018;BME280;43810;50.860;19.226;2023-06-22T10:57:27;98937.09;;;31.51;44.77
58018;BME280;43810;50.860;19.226;2023-06-22T10:59:53;98933.44;;;30.63;43.23
58018;BME280;43810;50.860;19.226;2023-06-22T11:02:19;98930.88;;;31.14;42.30
58018;BME280;43810;50.860;19.226;2023-06-22T11:04:45;98923.56;;;31.57;40.36
58018;BME280;43810;50.860;19.226;2023-06-22T11:07:11;98931.94;;;31.53;40.72
58018;BME280;43810;50.860;19.226;2023-06-22T11:09:37;98927.34;;;31.50;40.80
58018;BME280;43810;50.860;19.226;2023-06-22T11:12:04;98930.75;;;31.18;41.35
58018;BME280;43810;50.860;19.226;2023-06-22T11:14:30;98930.88;;;30.29;43.57
58018;BME280;43810;50.860;19.226;2023-06-22T11:16:56;98915.75;;;30.15;44.87
58018;BME280;43810;50.860;19.226;2023-06-22T11:19:21;98906.72;;;30.54;44.65
58018;BME280;43810;50.860;19.226;2023-06-22T11:21:48;98907.38;;;30.77;43.26
58018;BME280;43810;50.860;19.226;2023-06-22T11:24:13;98908.44;;;30.70;43.54
58018;BME280;43810;50.860;19.226;2023-06-22T11:26:40;98911.19;;;30.61;41.67
58018;BME280;43810;50.860;19.226;2023-06-22T11:29:06;98904.66;;;30.95;42.19
58018;BME280;43810;50.860;19.226;2023-06-22T11:31:32;98901.13;;;30.95;41.92
58018;BME280;43810;50.860;19.226;2023-06-22T11:33:58;98909.19;;;31.44;41.50
58018;BME280;43810;50.860;19.226;2023-06-22T11:36:25;98901.66;;;31.72;39.72
58018;BME280;43810;50.860;19.226;2023-06-22T11:38:51;98901.94;;;31.83;41.32
58018;BME280;43810;50.860;19.226;2023-06-22T11:41:17;98901.03;;;32.19;41.53
58018;BME280;43810;50.860;19.226;2023-06-22T11:43:44;98910.75;;;32.29;39.34
58018;BME280;43810;50.860;19.226;2023-06-22T11:46:10;98907.94;;;32.14;40.32
58018;BME280;43810;50.860;19.226;2023-06-22T11:48:36;98899.19;;;32.25;38.62
58018;BME280;43810;50.860;19.226;2023-06-22T11:51:02;98902.47;;;32.38;43.13
58018;BME280;43810;50.860;19.226;2023-06-22T11:53:28;98896.69;;;32.98;38.58
58018;BME280;43810;50.860;19.226;2023-06-22T11:55:55;98899.66;;;33.10;37.17
58018;BME280;43810;50.860;19.226;2023-06-22T11:58:21;98895.84;;;32.92;37.89
58018;BME280;43810;50.860;19.226;2023-06-22T12:00:48;98893.19;;;32.50;39.75
58018;BME280;43810;50.860;19.226;2023-06-22T12:03:15;98885.16;;;32.85;37.45
58018;BME280;43810;50.860;19.226;2023-06-22T12:05:42;98895.50;;;32.76;39.37
58018;BME280;43810;50.860;19.226;2023-06-22T12:08:08;98884.28;;;32.64;37.93
58018;BME280;43810;50.860;19.226;2023-06-22T12:10:34;98878.72;;;32.88;38.61
58018;BME280;43810;50.860;19.226;2023-06-22T12:13:00;98884.16;;;32.83;40.09
58018;BME280;43810;50.860;19.226;2023-06-22T12:15:26;98881.56;;;32.31;38.61
58018;BME280;43810;50.860;19.226;2023-06-22T12:17:52;98883.16;;;32.47;38.79
58018;BME280;43810;50.860;19.226;2023-06-22T12:20:19;98876.59;;;32.45;36.69
58018;BME280;43810;50.860;19.226;2023-06-22T12:22:45;98866.97;;;31.83;39.56
58018;BME280;43810;50.860;19.226;2023-06-22T12:25:12;98864.16;;;31.50;38.38
58018;BME280;43810;50.860;19.226;2023-06-22T12:27:38;98861.88;;;31.67;39.34
58018;BME280;43810;50.860;19.226;2023-06-22T12:30:05;98861.50;;;32.07;40.87
58018;BME280;43810;50.860;19.226;2023-06-22T12:32:31;98857.59;;;32.32;38.53
58018;BME280;43810;50.860;19.226;2023-06-22T12:34:57;98867.69;;;32.74;39.18
58018;BME280;43810;50.860;19.226;2023-06-22T12:37:23;98854.28;;;33.64;36.70
58018;BME280;43810;50.860;19.226;2023-06-22T12:39:49;98851.97;;;34.27;36.15
58018;BME280;43810;50.860;19.226;2023-06-22T12:42:16;98845.06;;;34.77;33.10
58018;BME280;43810;50.860;19.226;2023-06-22T12:44:42;98848.81;;;35.00;32.40
58018;BME280;43810;50.860;19.226;2023-06-22T12:47:08;98846.22;;;34.91;33.56
58018;BME280;43810;50.860;19.226;2023-06-22T12:49:37;98842.53;;;34.33;36.11
58018;BME280;43810;50.860;19.226;2023-06-22T12:52:08;98835.78;;;33.50;34.41
58018;BME280;43810;50.860;19.226;2023-06-22T12:54:34;98835.50;;;33.48;36.99
58018;BME280;43810;50.860;19.226;2023-06-22T12:57:00;98828.25;;;33.65;38.02